sensor_id;sensor_type;location;lat;lon;timestamp;P1;durP1;ratioP1;P2;durP2;ratioP2
24357;SDS011;13668;52.154;5.580;2023-07-13T00:01:34;1.45;;;0.65;;
24357;SDS011;13668;52.154;5.580;2023-07-13T00:04:00;2.30;;;0.90;;
24357;SDS011;13668;52.154;5.580;2023-07-13T00:06:26;3.00;;;1.25;;
24357;SDS011;13668;52.154;5.580;2023-07-13T00:08:58;1.30;;;0.70;;
24357;SDS011;13668;52.154;5.580;2023-07-13T00:11:24;2.47;;;1.13;;
24357;SDS011;13668;52.154;5.580;2023-07-13T00:13:51;2.47;;;1.45;;
24357;SDS011;13668;52.154;5.580;2023-07-13T00:16:17;3.50;;;1.13;;
24357;SDS011;13668;52.154;5.580;2023-07-13T00:18:44;1.75;;;0.88;;
24357;SDS011;13668;52.154;5.580;2023-07-13T00:21:10;1.95;;;1.52;;
24357;SDS011;13668;52.154;5.580;2023-07-13T00:23:37;2.30;;;1.23;;
24357;SDS011;13668;52.154;5.580;2023-07-13T00:26:04;8.13;;;1.58;;
24357;SDS011;13668;52.154;5.580;2023-07-13T00:28:30;3.38;;;0.90;;
24357;SDS011;13668;52.154;5.580;2023-07-13T00:30:56;2.60;;;1.30;;
24357;SDS011;13668;52.154;5.580;2023-07-13T00:33:22;2.97;;;1.30;;
24357;SDS011;13668;52.154;5.580;2023-07-13T00:35:49;1.48;;;0.90;;
24357;SDS011;13668;52.154;5.580;2023-07-13T00:38:15;1.17;;;1.08;;
24357;SDS011;13668;52.154;5.580;2023-07-13T00:40:41;3.28;;;1.35;;
24357;SDS011;13668;52.154;5.580;2023-07-13T00:43:21;3.53;;;1.10;;
24357;SDS011;13668;52.154;5.580;2023-07-13T00:48:34;1.75;;;0.65;;
24357;SDS011;13668;52.154;5.580;2023-07-13T00:51:00;2.33;;;1.10;;
24357;SDS011;13668;52.154;5.580;2023-07-13T00:53:27;2.20;;;1.00;;
24357;SDS011;13668;52.154;5.580;2023-07-13T00:55:54;2.28;;;1.52;;
24357;SDS011;13668;52.154;5.580;2023-07-13T00:58:22;3.50;;;1.10;;
24357;SDS011;13668;52.154;5.580;2023-07-13T01:00:49;3.90;;;1.10;;
24357;SDS011;13668;52.154;5.580;2023-07-13T01:03:16;1.25;;;0.90;;
24357;SDS011;13668;52.154;5.580;2023-07-13T01:05:42;1.90;;;0.98;;
24357;SDS011;13668;52.154;5.580;2023-07-13T01:08:08;2.25;;;1.00;;
24357;SDS011;13668;52.154;5.580;2023-07-13T01:10:34;2.42;;;1.13;;
24357;SDS011;13668;52.154;5.580;2023-07-13T01:13:07;2.20;;;1.08;;
24357;SDS011;13668;52.154;5.580;2023-07-13T01:15:43;1.33;;;0.82;;
24357;SDS011;13668;52.154;5.580;2023-07-13T01:18:11;2.70;;;1.38;;
24357;SDS011;13668;52.154;5.580;2023-07-13T01:20:37;3.60;;;1.10;;
24357;SDS011;13668;52.154;5.580;2023-07-13T01:23:07;8.05;;;1.85;;
24357;SDS011;13668;52.154;5.580;2023-07-13T01:25:34;1.52;;;1.02;;
24357;SDS011;13668;52.154;5.580;2023-07-13T01:28:01;1.83;;;1.10;;
24357;SDS011;13668;52.154;5.580;2023-07-13T01:30:27;4.65;;;1.02;;
24357;SDS011;13668;52.154;5.580;2023-07-13T01:32:53;3.53;;;1.13;;
24357;SDS011;13668;52.154;5.580;2023-07-13T01:35:19;2.88;;;0.93;;
24357;SDS011;13668;52.154;5.580;2023-07-13T01:37:45;2.10;;;1.20;;
24357;SDS011;13668;52.154;5.580;2023-07-13T01:40:12;2.75;;;1.30;;
24357;SDS011;13668;52.154;5.580;2023-07-13T01:42:38;1.80;;;1.20;;
24357;SDS011;13668;52.154;5.580;2023-07-13T01:45:05;3.58;;;1.05;;
24357;SDS011;13668;52.154;5.580;2023-07-13T01:47:31;2.55;;;1.13;;
24357;SDS011;13668;52.154;5.580;2023-07-13T01:49:57;1.30;;;1.08;;
24357;SDS011;13668;52.154;5.580;2023-07-13T01:52:23;1.02;;;0.80;;
24357;SDS011;13668;52.154;5.580;2023-07-13T01:54:49;1.30;;;1.13;;
24357;SDS011;13668;52.154;5.580;2023-07-13T01:57:16;2.03;;;1.08;;
24357;SDS011;13668;52.154;5.580;2023-07-13T01:59:42;8.50;;;1.52;;
24357;SDS011;13668;52.154;5.580;2023-07-13T02:02:08;0.95;;;0.85;;
24357;SDS011;13668;52.154;5.580;2023-07-13T02:04:34;1.70;;;1.30;;
24357;SDS011;13668;52.154;5.580;2023-07-13T02:07:00;2.45;;;1.63;;
24357;SDS011;13668;52.154;5.580;2023-07-13T02:09:27;1.80;;;1.17;;
24357;SDS011;13668;52.154;5.580;2023-07-13T02:11:53;2.88;;;1.00;;
24357;SDS011;13668;52.154;5.580;2023-07-13T02:14:19;1.35;;;1.27;;
24357;SDS011;13668;52.154;5.580;2023-07-13T02:16:45;4.32;;;0.90;;
24357;SDS011;13668;52.154;5.580;2023-07-13T02:19:13;2.40;;;1.65;;
24357;SDS011;13668;52.154;5.580;2023-07-13T02:21:39;1.35;;;1.00;;
24357;SDS011;13668;52.154;5.580;2023-07-13T02:24:05;1.20;;;1.00;;
24357;SDS011;13668;52.154;5.580;2023-07-13T02:26:31;7.18;;;1.55;;
24357;SDS011;13668;52.154;5.580;2023-07-13T02:28:57;1.55;;;1.13;;
24357;SDS011;13668;52.154;5.580;2023-07-13T02:31:23;3.15;;;0.80;;
24357;SDS011;13668;52.154;5.580;2023-07-13T02:33:51;0.65;;;0.65;;
24357;SDS011;13668;52.154;5.580;2023-07-13T02:36:17;1.20;;;1.10;;
24357;SDS011;13668;52.154;5.580;2023-07-13T02:38:43;4.00;;;1.30;;
24357;SDS011;13668;52.154;5.580;2023-07-13T02:41:09;2.45;;;1.30;;
24357;SDS011;13668;52.154;5.580;2023-07-13T02:43:36;1.30;;;1.17;;
24357;SDS011;13668;52.154;5.580;2023-07-13T02:46:03;3.25;;;1.20;;
24357;SDS011;13668;52.154;5.580;2023-07-13T02:48:32;7.07;;;1.30;;
24357;SDS011;13668;52.154;5.580;2023-07-13T02:50:58;3.40;;;1.58;;
24357;SDS011;13668;52.154;5.580;2023-07-13T02:53:25;3.92;;;1.42;;
24357;SDS011;13668;52.154;5.580;2023-07-13T02:55:51;2.38;;;1.65;;
24357;SDS011;13668;52.154;5.580;2023-07-13T02:58:17;2.83;;;1.08;;
24357;SDS011;13668;52.154;5.580;2023-07-13T03:00:44;2.92;;;1.08;;
24357;SDS011;13668;52.154;5.580;2023-07-13T03:03:11;1.33;;;1.00;;
24357;SDS011;13668;52.154;5.580;2023-07-13T03:05:38;4.47;;;1.50;;
24357;SDS011;13668;52.154;5.580;2023-07-13T03:08:04;7.25;;;1.42;;
24357;SDS011;13668;52.154;5.580;2023-07-13T03:10:31;3.47;;;1.20;;
24357;SDS011;13668;52.154;5.580;2023-07-13T03:12:57;5.00;;;1.67;;
24357;SDS011;13668;52.154;5.580;2023-07-13T03:15:23;2.83;;;1.05;;
24357;SDS011;13668;52.154;5.580;2023-07-13T03:17:49;3.42;;;1.65;;
24357;SDS011;13668;52.154;5.580;2023-07-13T03:20:15;4.35;;;1.60;;
24357;SDS011;13668;52.154;5.580;2023-07-13T03:22:41;2.80;;;1.55;;
24357;SDS011;13668;52.154;5.580;2023-07-13T03:25:07;1.45;;;1.15;;
24357;SDS011;13668;52.154;5.580;2023-07-13T03:27:33;2.35;;;1.35;;
24357;SDS011;13668;52.154;5.580;2023-07-13T03:29:59;4.03;;;1.25;;
24357;SDS011;13668;52.154;5.580;2023-07-13T03:32:26;3.25;;;1.15;;
24357;SDS011;13668;52.154;5.580;2023-07-13T03:34:52;4.78;;;1.50;;
24357;SDS011;13668;52.154;5.580;2023-07-13T03:37:18;3.42;;;1.73;;
24357;SDS011;13668;52.154;5.580;2023-07-13T03:39:44;5.88;;;1.98;;
24357;SDS011;13668;52.154;5.580;2023-07-13T03:42:10;4.25;;;1.52;;
24357;SDS011;13668;52.154;5.580;2023-07-13T03:44:36;1.50;;;1.40;;
24357;SDS011;13668;52.154;5.580;2023-07-13T03:47:02;2.40;;;1.52;;
24357;SDS011;13668;52.154;5.580;2023-07-13T03:49:28;3.10;;;1.38;;
24357;SDS011;13668;52.154;5.580;2023-07-13T03:51:54;4.35;;;2.13;;
24357;SDS011;13668;52.154;5.580;2023-07-13T03:54:20;4.63;;;1.77;;
24357;SDS011;13668;52.154;5.580;2023-07-13T03:56:46;8.02;;;2.17;;
24357;SDS011;13668;52.154;5.580;2023-07-13T03:59:12;4.47;;;2.05;;
24357;SDS011;13668;52.154;5.580;2023-07-13T04:01:38;5.88;;;1.88;;
24357;SDS011;13668;52.154;5.580;2023-07-13T04:04:04;3.00;;;1.73;;
24357;SDS011;13668;52.154;5.580;2023-07-13T04:06:30;2.40;;;1.88;;
24357;SDS011;13668;52.154;5.580;2023-07-13T04:08:57;5.47;;;1.75;;
24357;SDS011;13668;52.154;5.580;2023-07-13T04:11:24;5.85;;;1.58;;
24357;SDS011;13668;52.154;5.580;2023-07-13T04:13:51;2.88;;;1.98;;
24357;SDS011;13668;52.154;5.580;2023-07-13T04:16:17;4.15;;;1.83;;
24357;SDS011;13668;52.154;5.580;2023-07-13T04:18:43;4.30;;;1.63;;
24357;SDS011;13668;52.154;5.580;2023-07-13T04:21:10;8.38;;;2.03;;
24357;SDS011;13668;52.154;5.580;2023-07-13T04:23:36;5.68;;;2.30;;
24357;SDS011;13668;52.154;5.580;2023-07-13T04:26:02;3.85;;;1.90;;
24357;SDS011;13668;52.154;5.580;2023-07-13T04:28:28;3.42;;;1.85;;
24357;SDS011;13668;52.154;5.580;2023-07-13T04:30:55;3.45;;;1.50;;
24357;SDS011;13668;52.154;5.580;2023-07-13T04:33:21;5.40;;;1.92;;
24357;SDS011;13668;52.154;5.580;2023-07-13T04:35:48;4.00;;;2.05;;
24357;SDS011;13668;52.154;5.580;2023-07-13T04:38:14;8.57;;;1.90;;
24357;SDS011;13668;52.154;5.580;2023-07-13T04:40:42;4.47;;;2.33;;
24357;SDS011;13668;52.154;5.580;2023-07-13T04:43:08;3.28;;;2.03;;
24357;SDS011;13668;52.154;5.580;2023-07-13T04:45:34;2.47;;;1.52;;
24357;SDS011;13668;52.154;5.580;2023-07-13T04:48:00;5.03;;;2.03;;
24357;SDS011;13668;52.154;5.580;2023-07-13T04:50:26;6.65;;;2.13;;
24357;SDS011;13668;52.154;5.580;2023-07-13T04:52:52;4.32;;;1.65;;
24357;SDS011;13668;52.154;5.580;2023-07-13T04:55:19;2.70;;;1.60;;
24357;SDS011;13668;52.154;5.580;2023-07-13T04:57:45;5.35;;;2.00;;
24357;SDS011;13668;52.154;5.580;2023-07-13T05:00:12;3.60;;;2.50;;
24357;SDS011;13668;52.154;5.580;2023-07-13T05:02:39;4.45;;;2.78;;
24357;SDS011;13668;52.154;5.580;2023-07-13T05:05:06;8.95;;;3.05;;
24357;SDS011;13668;52.154;5.580;2023-07-13T05:07:32;3.42;;;1.50;;
24357;SDS011;13668;52.154;5.580;2023-07-13T05:09:58;7.05;;;2.30;;
24357;SDS011;13668;52.154;5.580;2023-07-13T05:12:25;4.85;;;2.53;;
24357;SDS011;13668;52.154;5.580;2023-07-13T05:14:51;4.72;;;2.38;;
24357;SDS011;13668;52.154;5.580;2023-07-13T05:17:17;4.50;;;2.40;;
24357;SDS011;13668;52.154;5.580;2023-07-13T05:19:43;7.65;;;2.88;;
24357;SDS011;13668;52.154;5.580;2023-07-13T05:22:09;5.15;;;2.10;;
24357;SDS011;13668;52.154;5.580;2023-07-13T05:24:35;4.30;;;2.42;;
24357;SDS011;13668;52.154;5.580;2023-07-13T05:27:01;4.43;;;2.53;;
24357;SDS011;13668;52.154;5.580;2023-07-13T05:29:27;8.40;;;3.55;;
24357;SDS011;13668;52.154;5.580;2023-07-13T05:31:54;10.35;;;3.25;;
24357;SDS011;13668;52.154;5.580;2023-07-13T05:34:20;3.70;;;2.20;;
24357;SDS011;13668;52.154;5.580;2023-07-13T05:36:47;6.05;;;2.65;;
24357;SDS011;13668;52.154;5.580;2023-07-13T05:39:14;3.08;;;2.78;;
24357;SDS011;13668;52.154;5.580;2023-07-13T05:41:40;5.75;;;2.78;;
24357;SDS011;13668;52.154;5.580;2023-07-13T05:44:06;7.30;;;4.05;;
24357;SDS011;13668;52.154;5.580;2023-07-13T05:46:32;5.90;;;2.63;;
24357;SDS011;13668;52.154;5.580;2023-07-13T05:48:58;7.07;;;3.42;;
24357;SDS011;13668;52.154;5.580;2023-07-13T05:51:24;6.28;;;2.63;;
24357;SDS011;13668;52.154;5.580;2023-07-13T05:53:50;6.07;;;2.28;;
24357;SDS011;13668;52.154;5.580;2023-07-13T05:56:16;4.00;;;2.83;;
24357;SDS011;13668;52.154;5.580;2023-07-13T05:58:42;5.90;;;3.72;;
24357;SDS011;13668;52.154;5.580;2023-07-13T06:01:10;8.13;;;3.53;;
24357;SDS011;13668;52.154;5.580;2023-07-13T06:03:36;7.75;;;3.90;;
24357;SDS011;13668;52.154;5.580;2023-07-13T06:06:03;8.13;;;3.90;;
24357;SDS011;13668;52.154;5.580;2023-07-13T06:08:30;10.68;;;3.85;;
24357;SDS011;13668;52.154;5.580;2023-07-13T06:11:29;7.43;;;3.67;;
24357;SDS011;13668;52.154;5.580;2023-07-13T06:13:49;5.43;;;3.70;;
24357;SDS011;13668;52.154;5.580;2023-07-13T06:16:15;9.73;;;4.13;;
24357;SDS011;13668;52.154;5.580;2023-07-13T06:18:42;6.20;;;3.65;;
24357;SDS011;13668;52.154;5.580;2023-07-13T06:21:09;9.18;;;4.47;;
24357;SDS011;13668;52.154;5.580;2023-07-13T06:23:35;10.15;;;5.25;;
24357;SDS011;13668;52.154;5.580;2023-07-13T06:26:02;7.70;;;4.55;;
24357;SDS011;13668;52.154;5.580;2023-07-13T06:28:28;6.50;;;4.30;;
24357;SDS011;13668;52.154;5.580;2023-07-13T06:30:55;12.55;;;5.32;;
24357;SDS011;13668;52.154;5.580;2023-07-13T06:33:21;7.28;;;4.57;;
24357;SDS011;13668;52.154;5.580;2023-07-13T06:35:47;7.68;;;4.88;;
24357;SDS011;13668;52.154;5.580;2023-07-13T06:38:13;7.43;;;4.70;;
24357;SDS011;13668;52.154;5.580;2023-07-13T06:40:39;7.03;;;4.38;;
24357;SDS011;13668;52.154;5.580;2023-07-13T06:43:05;11.60;;;5.32;;
24357;SDS011;13668;52.154;5.580;2023-07-13T06:45:33;6.43;;;3.85;;
24357;SDS011;13668;52.154;5.580;2023-07-13T06:47:59;10.13;;;4.75;;
24357;SDS011;13668;52.154;5.580;2023-07-13T06:50:25;7.50;;;5.60;;
24357;SDS011;13668;52.154;5.580;2023-07-13T06:52:51;9.88;;;6.13;;
24357;SDS011;13668;52.154;5.580;2023-07-13T06:55:17;13.75;;;6.50;;
24357;SDS011;13668;52.154;5.580;2023-07-13T06:57:43;7.88;;;5.53;;
24357;SDS011;13668;52.154;5.580;2023-07-13T07:00:10;7.38;;;5.47;;
24357;SDS011;13668;52.154;5.580;2023-07-13T07:02:36;7.68;;;6.50;;
24357;SDS011;13668;52.154;5.580;2023-07-13T07:05:02;9.63;;;6.50;;
24357;SDS011;13668;52.154;5.580;2023-07-13T07:07:28;8.93;;;5.63;;
24357;SDS011;13668;52.154;5.580;2023-07-13T07:09:54;9.27;;;5.65;;
24357;SDS011;13668;52.154;5.580;2023-07-13T07:12:20;16.45;;;5.45;;
24357;SDS011;13668;52.154;5.580;2023-07-13T07:14:49;9.45;;;5.28;;
24357;SDS011;13668;52.154;5.580;2023-07-13T07:17:15;11.38;;;5.45;;
24357;SDS011;13668;52.154;5.580;2023-07-13T07:19:41;12.82;;;5.90;;
24357;SDS011;13668;52.154;5.580;2023-07-13T07:22:07;9.10;;;5.72;;
24357;SDS011;13668;52.154;5.580;2023-07-13T07:24:33;13.38;;;5.60;;
24357;SDS011;13668;52.154;5.580;2023-07-13T07:26:59;8.80;;;5.53;;
24357;SDS011;13668;52.154;5.580;2023-07-13T07:29:25;9.65;;;5.50;;
24357;SDS011;13668;52.154;5.580;2023-07-13T07:31:52;10.35;;;5.80;;
24357;SDS011;13668;52.154;5.580;2023-07-13T07:34:18;8.60;;;5.60;;
24357;SDS011;13668;52.154;5.580;2023-07-13T07:36:44;8.65;;;5.18;;
24357;SDS011;13668;52.154;5.580;2023-07-13T07:39:10;6.32;;;4.80;;
24357;SDS011;13668;52.154;5.580;2023-07-13T07:41:37;7.60;;;4.95;;
24357;SDS011;13668;52.154;5.580;2023-07-13T07:44:03;8.35;;;5.65;;
24357;SDS011;13668;52.154;5.580;2023-07-13T07:46:29;8.57;;;5.93;;
24357;SDS011;13668;52.154;5.580;2023-07-13T07:48:55;13.35;;;5.80;;
24357;SDS011;13668;52.154;5.580;2023-07-13T07:51:21;6.05;;;5.10;;
24357;SDS011;13668;52.154;5.580;2023-07-13T07:53:47;9.27;;;7.00;;
24357;SDS011;13668;52.154;5.580;2023-07-13T07:56:13;12.10;;;7.45;;
24357;SDS011;13668;52.154;5.580;2023-07-13T07:58:41;8.23;;;5.40;;
24357;SDS011;13668;52.154;5.580;2023-07-13T08:01:07;11.68;;;6.45;;
24357;SDS011;13668;52.154;5.580;2023-07-13T08:03:33;9.63;;;6.05;;
24357;SDS011;13668;52.154;5.580;2023-07-13T08:06:00;13.35;;;7.65;;
24357;SDS011;13668;52.154;5.580;2023-07-13T08:08:26;12.07;;;6.45;;
24357;SDS011;13668;52.154;5.580;2023-07-13T08:10:52;12.13;;;6.47;;
24357;SDS011;13668;52.154;5.580;2023-07-13T08:13:18;11.70;;;7.15;;
24357;SDS011;13668;52.154;5.580;2023-07-13T08:15:44;8.95;;;6.10;;
24357;SDS011;13668;52.154;5.580;2023-07-13T08:18:11;8.63;;;5.97;;
24357;SDS011;13668;52.154;5.580;2023-07-13T08:20:38;10.80;;;5.07;;
24357;SDS011;13668;52.154;5.580;2023-07-13T08:23:04;8.07;;;4.93;;
24357;SDS011;13668;52.154;5.580;2023-07-13T08:25:30;7.18;;;5.18;;
24357;SDS011;13668;52.154;5.580;2023-07-13T08:27:56;6.90;;;3.97;;
24357;SDS011;13668;52.154;5.580;2023-07-13T08:30:22;5.05;;;3.65;;
24357;SDS011;13668;52.154;5.580;2023-07-13T08:32:48;7.93;;;3.97;;
24357;SDS011;13668;52.154;5.580;2023-07-13T08:35:14;8.13;;;4.18;;
24357;SDS011;13668;52.154;5.580;2023-07-13T08:37:41;7.07;;;4.07;;
24357;SDS011;13668;52.154;5.580;2023-07-13T08:40:10;4.95;;;3.50;;
24357;SDS011;13668;52.154;5.580;2023-07-13T08:42:37;5.88;;;3.35;;
24357;SDS011;13668;52.154;5.580;2023-07-13T08:45:21;3.33;;;2.70;;
24357;SDS011;13668;52.154;5.580;2023-07-13T08:50:19;5.20;;;2.85;;
24357;SDS011;13668;52.154;5.580;2023-07-13T08:52:45;6.00;;;2.92;;
24357;SDS011;13668;52.154;5.580;2023-07-13T08:55:16;7.95;;;3.08;;
24357;SDS011;13668;52.154;5.580;2023-07-13T08:57:44;3.38;;;2.55;;
24357;SDS011;13668;52.154;5.580;2023-07-13T09:00:12;5.05;;;2.50;;
24357;SDS011;13668;52.154;5.580;2023-07-13T09:10:30;1.70;;;0.90;;
24357;SDS011;13668;52.154;5.580;2023-07-13T09:15:44;1.25;;;0.80;;
24357;SDS011;13668;52.154;5.580;2023-07-13T09:18:22;1.15;;;1.10;;
24357;SDS011;13668;52.154;5.580;2023-07-13T09:20:53;2.08;;;1.10;;
24357;SDS011;13668;52.154;5.580;2023-07-13T09:23:22;1.80;;;1.45;;
24357;SDS011;13668;52.154;5.580;2023-07-13T09:25:49;3.90;;;1.55;;
24357;SDS011;13668;52.154;5.580;2023-07-13T09:28:22;2.42;;;1.17;;
24357;SDS011;13668;52.154;5.580;2023-07-13T09:33:18;2.15;;;1.30;;
24357;SDS011;13668;52.154;5.580;2023-07-13T09:35:44;2.53;;;1.17;;
24357;SDS011;13668;52.154;5.580;2023-07-13T09:38:14;4.20;;;1.20;;
24357;SDS011;13668;52.154;5.580;2023-07-13T09:43:08;4.45;;;1.65;;
24357;SDS011;13668;52.154;5.580;2023-07-13T09:45:36;1.67;;;1.58;;
24357;SDS011;13668;52.154;5.580;2023-07-13T09:48:20;2.17;;;1.30;;
24357;SDS011;13668;52.154;5.580;2023-07-13T09:50:46;2.10;;;1.27;;
24357;SDS011;13668;52.154;5.580;2023-07-13T09:53:15;3.05;;;2.03;;
24357;SDS011;13668;52.154;5.580;2023-07-13T09:55:42;1.50;;;1.25;;
24357;SDS011;13668;52.154;5.580;2023-07-13T09:58:19;1.20;;;1.08;;
24357;SDS011;13668;52.154;5.580;2023-07-13T10:00:58;2.22;;;1.20;;
24357;SDS011;13668;52.154;5.580;2023-07-13T10:03:31;1.80;;;1.05;;
24357;SDS011;13668;52.154;5.580;2023-07-13T10:06:18;4.35;;;1.45;;
24357;SDS011;13668;52.154;5.580;2023-07-13T10:08:45;2.28;;;1.40;;
24357;SDS011;13668;52.154;5.580;2023-07-13T10:11:17;2.08;;;1.50;;
24357;SDS011;13668;52.154;5.580;2023-07-13T10:13:46;2.20;;;1.45;;
24357;SDS011;13668;52.154;5.580;2023-07-13T10:16:14;2.00;;;1.27;;
24357;SDS011;13668;52.154;5.580;2023-07-13T10:18:44;2.60;;;1.73;;
24357;SDS011;13668;52.154;5.580;2023-07-13T10:21:16;1.73;;;0.85;;
24357;SDS011;13668;52.154;5.580;2023-07-13T10:23:43;2.42;;;1.25;;
24357;SDS011;13668;52.154;5.580;2023-07-13T10:26:19;2.35;;;1.60;;
24357;SDS011;13668;52.154;5.580;2023-07-13T10:28:47;1.48;;;1.17;;
24357;SDS011;13668;52.154;5.580;2023-07-13T10:31:17;2.38;;;1.42;;
24357;SDS011;13668;52.154;5.580;2023-07-13T10:33:43;2.47;;;1.20;;
24357;SDS011;13668;52.154;5.580;2023-07-13T10:38:54;1.90;;;1.20;;
24357;SDS011;13668;52.154;5.580;2023-07-13T10:41:21;5.78;;;1.60;;
24357;SDS011;13668;52.154;5.580;2023-07-13T10:43:50;3.75;;;1.67;;
24357;SDS011;13668;52.154;5.580;2023-07-13T10:46:18;1.42;;;1.23;;
24357;SDS011;13668;52.154;5.580;2023-07-13T10:48:46;3.13;;;1.75;;
24357;SDS011;13668;52.154;5.580;2023-07-13T10:51:14;1.38;;;1.27;;
24357;SDS011;13668;52.154;5.580;2023-07-13T10:53:41;3.50;;;1.50;;
24357;SDS011;13668;52.154;5.580;2023-07-13T10:58:42;3.28;;;1.58;;
24357;SDS011;13668;52.154;5.580;2023-07-13T11:01:10;3.33;;;1.65;;
24357;SDS011;13668;52.154;5.580;2023-07-13T11:03:38;1.10;;;0.98;;
24357;SDS011;13668;52.154;5.580;2023-07-13T11:06:36;1.42;;;1.30;;
24357;SDS011;13668;52.154;5.580;2023-07-13T11:11:46;1.48;;;1.38;;
24357;SDS011;13668;52.154;5.580;2023-07-13T11:15:00;1.13;;;1.02;;
24357;SDS011;13668;52.154;5.580;2023-07-13T11:16:58;1.15;;;0.90;;
24357;SDS011;13668;52.154;5.580;2023-07-13T11:19:26;1.50;;;1.20;;
24357;SDS011;13668;52.154;5.580;2023-07-13T11:24:53;2.30;;;1.38;;
24357;SDS011;13668;52.154;5.580;2023-07-13T11:27:33;1.30;;;1.00;;
24357;SDS011;13668;52.154;5.580;2023-07-13T11:30:09;2.03;;;1.13;;
24357;SDS011;13668;52.154;5.580;2023-07-13T11:32:43;2.40;;;1.00;;
24357;SDS011;13668;52.154;5.580;2023-07-13T11:35:13;1.40;;;1.10;;
24357;SDS011;13668;52.154;5.580;2023-07-13T11:37:40;2.38;;;1.45;;
24357;SDS011;13668;52.154;5.580;2023-07-13T11:40:11;2.45;;;1.00;;
24357;SDS011;13668;52.154;5.580;2023-07-13T11:42:38;2.35;;;1.13;;
24357;SDS011;13668;52.154;5.580;2023-07-13T11:45:12;1.98;;;1.60;;
24357;SDS011;13668;52.154;5.580;2023-07-13T11:47:42;2.85;;;1.52;;
24357;SDS011;13668;52.154;5.580;2023-07-13T11:50:16;2.30;;;1.33;;
24357;SDS011;13668;52.154;5.580;2023-07-13T11:52:43;3.67;;;1.88;;
24357;SDS011;13668;52.154;5.580;2023-07-13T11:55:16;2.38;;;1.20;;
24357;SDS011;13668;52.154;5.580;2023-07-13T11:57:45;2.10;;;1.50;;
24357;SDS011;13668;52.154;5.580;2023-07-13T12:00:13;1.35;;;1.23;;
24357;SDS011;13668;52.154;5.580;2023-07-13T12:02:44;1.63;;;0.85;;
24357;SDS011;13668;52.154;5.580;2023-07-13T12:05:14;1.30;;;1.13;;
24357;SDS011;13668;52.154;5.580;2023-07-13T12:07:42;1.02;;;0.90;;
24357;SDS011;13668;52.154;5.580;2023-07-13T12:12:35;1.38;;;1.27;;
24357;SDS011;13668;52.154;5.580;2023-07-13T12:15:06;2.70;;;1.30;;
24357;SDS011;13668;52.154;5.580;2023-07-13T12:17:34;2.05;;;1.25;;
24357;SDS011;13668;52.154;5.580;2023-07-13T12:20:00;1.77;;;1.50;;
24357;SDS011;13668;52.154;5.580;2023-07-13T12:22:26;1.60;;;1.50;;
24357;SDS011;13668;52.154;5.580;2023-07-13T12:24:52;3.95;;;1.48;;
24357;SDS011;13668;52.154;5.580;2023-07-13T12:27:20;2.47;;;1.65;;
24357;SDS011;13668;52.154;5.580;2023-07-13T12:29:52;1.30;;;1.20;;
24357;SDS011;13668;52.154;5.580;2023-07-13T12:32:19;1.77;;;1.60;;
24357;SDS011;13668;52.154;5.580;2023-07-13T12:34:52;3.40;;;1.55;;
24357;SDS011;13668;52.154;5.580;2023-07-13T12:37:18;1.55;;;1.42;;
24357;SDS011;13668;52.154;5.580;2023-07-13T12:39:45;4.07;;;1.25;;
24357;SDS011;13668;52.154;5.580;2023-07-13T12:42:55;1.33;;;1.23;;
24357;SDS011;13668;52.154;5.580;2023-07-13T12:45:03;4.45;;;1.58;;
24357;SDS011;13668;52.154;5.580;2023-07-13T12:47:30;3.42;;;1.95;;
24357;SDS011;13668;52.154;5.580;2023-07-13T12:49:57;3.15;;;1.58;;
24357;SDS011;13668;52.154;5.580;2023-07-13T12:52:33;1.92;;;1.30;;
24357;SDS011;13668;52.154;5.580;2023-07-13T12:55:10;2.38;;;1.45;;
24357;SDS011;13668;52.154;5.580;2023-07-13T12:57:41;1.25;;;1.10;;
24357;SDS011;13668;52.154;5.580;2023-07-13T13:00:23;4.20;;;1.75;;
24357;SDS011;13668;52.154;5.580;2023-07-13T13:02:51;2.63;;;1.38;;
24357;SDS011;13668;52.154;5.580;2023-07-13T13:05:17;2.28;;;1.33;;
24357;SDS011;13668;52.154;5.580;2023-07-13T13:07:48;1.85;;;1.75;;
24357;SDS011;13668;52.154;5.580;2023-07-13T13:10:14;1.80;;;1.42;;
24357;SDS011;13668;52.154;5.580;2023-07-13T13:12:40;2.63;;;1.40;;
24357;SDS011;13668;52.154;5.580;2023-07-13T13:15:10;1.23;;;1.10;;
24357;SDS011;13668;52.154;5.580;2023-07-13T13:17:36;3.28;;;1.50;;
24357;SDS011;13668;52.154;5.580;2023-07-13T13:20:16;3.15;;;1.27;;
24357;SDS011;13668;52.154;5.580;2023-07-13T13:22:42;2.42;;;1.52;;
24357;SDS011;13668;52.154;5.580;2023-07-13T13:25:11;3.53;;;1.17;;
24357;SDS011;13668;52.154;5.580;2023-07-13T13:27:39;1.60;;;1.45;;
24357;SDS011;13668;52.154;5.580;2023-07-13T13:30:12;1.92;;;1.45;;
24357;SDS011;13668;52.154;5.580;2023-07-13T13:32:39;2.92;;;1.27;;
24357;SDS011;13668;52.154;5.580;2023-07-13T13:35:07;1.17;;;1.08;;
24357;SDS011;13668;52.154;5.580;2023-07-13T13:37:38;2.03;;;1.50;;
24357;SDS011;13668;52.154;5.580;2023-07-13T13:40:11;2.47;;;1.40;;
24357;SDS011;13668;52.154;5.580;2023-07-13T13:42:38;1.40;;;1.08;;
24357;SDS011;13668;52.154;5.580;2023-07-13T13:45:05;2.85;;;1.55;;
24357;SDS011;13668;52.154;5.580;2023-07-13T13:47:31;1.17;;;1.08;;
24357;SDS011;13668;52.154;5.580;2023-07-13T13:49:58;1.20;;;0.93;;
24357;SDS011;13668;52.154;5.580;2023-07-13T13:52:25;1.25;;;1.10;;
24357;SDS011;13668;52.154;5.580;2023-07-13T13:54:51;3.30;;;1.55;;
24357;SDS011;13668;52.154;5.580;2023-07-13T13:57:24;1.33;;;1.23;;
24357;SDS011;13668;52.154;5.580;2023-07-13T13:59:50;1.27;;;1.08;;
24357;SDS011;13668;52.154;5.580;2023-07-13T14:02:25;1.48;;;1.25;;
24357;SDS011;13668;52.154;5.580;2023-07-13T14:04:55;2.45;;;1.20;;
24357;SDS011;13668;52.154;5.580;2023-07-13T14:07:22;1.50;;;1.40;;
24357;SDS011;13668;52.154;5.580;2023-07-13T14:09:48;2.00;;;1.50;;
24357;SDS011;13668;52.154;5.580;2023-07-13T14:12:14;1.83;;;1.20;;
24357;SDS011;13668;52.154;5.580;2023-07-13T14:14:40;1.52;;;1.30;;
24357;SDS011;13668;52.154;5.580;2023-07-13T14:17:11;3.42;;;1.20;;
24357;SDS011;13668;52.154;5.580;2023-07-13T14:19:43;2.28;;;1.42;;
24357;SDS011;13668;52.154;5.580;2023-07-13T14:22:10;1.98;;;1.42;;
24357;SDS011;13668;52.154;5.580;2023-07-13T14:24:36;2.72;;;1.20;;
24357;SDS011;13668;52.154;5.580;2023-07-13T14:27:02;1.77;;;1.27;;
24357;SDS011;13668;52.154;5.580;2023-07-13T14:29:28;3.58;;;1.33;;
24357;SDS011;13668;52.154;5.580;2023-07-13T14:31:57;1.10;;;1.00;;
24357;SDS011;13668;52.154;5.580;2023-07-13T14:34:23;2.90;;;1.50;;
24357;SDS011;13668;52.154;5.580;2023-07-13T14:36:49;1.50;;;0.93;;
24357;SDS011;13668;52.154;5.580;2023-07-13T14:39:17;1.50;;;1.33;;
24357;SDS011;13668;52.154;5.580;2023-07-13T14:41:43;1.98;;;1.50;;
24357;SDS011;13668;52.154;5.580;2023-07-13T14:44:16;1.92;;;1.67;;
24357;SDS011;13668;52.154;5.580;2023-07-13T14:46:43;2.65;;;1.33;;
24357;SDS011;13668;52.154;5.580;2023-07-13T14:51:51;3.13;;;1.25;;
24357;SDS011;13668;52.154;5.580;2023-07-13T14:54:17;1.98;;;1.40;;
24357;SDS011;13668;52.154;5.580;2023-07-13T14:56:43;2.20;;;1.17;;
24357;SDS011;13668;52.154;5.580;2023-07-13T14:59:09;2.13;;;1.20;;
24357;SDS011;13668;52.154;5.580;2023-07-13T15:01:37;2.38;;;1.08;;
24357;SDS011;13668;52.154;5.580;2023-07-13T15:04:05;2.30;;;1.40;;
24357;SDS011;13668;52.154;5.580;2023-07-13T15:06:31;1.60;;;1.25;;
24357;SDS011;13668;52.154;5.580;2023-07-13T15:08:57;1.00;;;1.00;;
24357;SDS011;13668;52.154;5.580;2023-07-13T15:11:23;3.00;;;1.13;;
24357;SDS011;13668;52.154;5.580;2023-07-13T15:13:49;3.13;;;1.13;;
24357;SDS011;13668;52.154;5.580;2023-07-13T15:16:21;2.80;;;1.52;;
24357;SDS011;13668;52.154;5.580;2023-07-13T15:18:48;1.83;;;1.08;;
24357;SDS011;13668;52.154;5.580;2023-07-13T15:21:19;2.88;;;1.20;;
24357;SDS011;13668;52.154;5.580;2023-07-13T15:23:45;1.90;;;1.10;;
24357;SDS011;13668;52.154;5.580;2023-07-13T15:26:12;1.67;;;1.20;;
24357;SDS011;13668;52.154;5.580;2023-07-13T15:28:39;2.03;;;1.10;;